Time;durP1;ratioP1;P1;durP2;ratioP2;P2;SDS_P1;SDS_P2;PMS_P1;PMS_P2;Temp;Humidity;BMP_temperature;BMP_pressure;BME280_temperature;BME280_humidity;BME280_pressure;Samples;Min_cycle;Max_cycle;Signal;HPM_P1;HPM_P2
2023/01/21 00:01:59;;;;;;;7.72;4.25;;;9.20;62.70;;;;;;5021756;28;20116;-74
2023/01/21 00:04:25;;;;;;;7.70;3.90;;;9.20;62.60;;;;;;5019649;28;20033;-73
2023/01/21 00:06:51;;;;;;;6.95;3.38;;;9.20;62.60;;;;;;5009052;28;20029;-73
2023/01/21 00:09:17;;;;;;;7.15;3.47;;;9.20;62.60;;;;;;5023596;28;20136;-74
2023/01/21 00:11:43;;;;;;;6.68;3.47;;;9.20;62.50;;;;;;5026223;28;20037;-72
2023/01/21 00:14:09;;;;;;;9.30;3.95;;;9.20;62.40;;;;;;5032417;28;20416;-73
2023/01/21 00:16:35;;;;;;;5.88;3.53;;;9.20;62.40;;;;;;5026362;28;20044;-74
2023/01/21 00:19:00;;;;;;;7.47;3.50;;;9.20;62.40;;;;;;5037584;28;21772;-73
2023/01/21 00:21:26;;;;;;;9.40;3.55;;;9.20;62.40;;;;;;5018947;28;20036;-73
2023/01/21 00:23:52;;;;;;;6.35;3.72;;;9.20;62.30;;;;;;5037795;28;20458;-74
2023/01/21 00:26:18;;;;;;;5.55;3.05;;;9.20;62.30;;;;;;5036855;28;20052;-73
2023/01/21 00:28:45;;;;;;;7.55;3.65;;;9.20;62.30;;;;;;5019221;28;20051;-73
2023/01/21 00:31:12;;;;;;;7.65;3.40;;;9.20;62.20;;;;;;5022260;28;20029;-74
2023/01/21 00:33:38;;;;;;;6.97;3.15;;;9.20;62.20;;;;;;5035350;28;20029;-73
2023/01/21 00:36:05;;;;;;;7.68;3.25;;;9.20;62.00;;;;;;5018629;28;20030;-74
2023/01/21 00:38:31;;;;;;;8.50;3.83;;;9.20;62.00;;;;;;5037023;28;20045;-74
2023/01/21 00:41:02;;;;;;;5.95;3.80;;;9.20;61.90;;;;;;5036825;28;20175;-74
2023/01/21 00:43:28;;;;;;;6.82;3.28;;;9.20;62.00;;;;;;5019723;28;20534;-74
2023/01/21 00:45:54;;;;;;;7.68;3.40;;;9.10;61.80;;;;;;5035991;28;20037;-74
2023/01/21 00:48:20;;;;;;;7.78;3.13;;;9.10;61.70;;;;;;5036595;28;20051;-74
2023/01/21 00:50:46;;;;;;;5.43;2.92;;;9.20;61.90;;;;;;5041846;28;20251;-74
2023/01/21 00:53:12;;;;;;;7.22;3.00;;;9.10;61.80;;;;;;5036140;28;20177;-74
2023/01/21 00:55:38;;;;;;;8.23;3.83;;;9.10;61.70;;;;;;5035558;28;20614;-74
2023/01/21 00:58:04;;;;;;;5.68;3.13;;;9.10;61.70;;;;;;5037005;28;20090;-74
2023/01/21 01:00:30;;;;;;;10.00;3.55;;;9.10;61.70;;;;;;5021418;28;20029;-75
2023/01/21 01:02:56;;;;;;;7.10;3.33;;;9.10;61.60;;;;;;5025586;28;20033;-74
2023/01/21 01:05:22;;;;;;;5.70;3.05;;;9.10;61.50;;;;;;5036958;28;20136;-74
2023/01/21 01:07:49;;;;;;;7.93;2.97;;;9.10;61.50;;;;;;5036873;28;20107;-74
2023/01/21 01:10:16;;;;;;;8.55;3.22;;;9.10;61.50;;;;;;5036897;28;20028;-74
2023/01/21 01:12:42;;;;;;;7.53;2.88;;;9.10;61.50;;;;;;5023832;28;20041;-75
2023/01/21 01:15:09;;;;;;;6.43;3.00;;;9.10;61.50;;;;;;5039623;28;20034;-74
2023/01/21 01:17:35;;;;;;;6.28;3.08;;;9.10;61.40;;;;;;5025068;28;20041;-74
2023/01/21 01:20:02;;;;;;;7.07;3.30;;;9.10;61.40;;;;;;5028571;28;20610;-74
2023/01/21 01:22:28;;;;;;;5.78;2.67;;;9.10;61.40;;;;;;5029803;28;20033;-73
2023/01/21 01:24:54;;;;;;;8.60;3.25;;;9.10;61.30;;;;;;5023622;28;21475;-73
2023/01/21 01:27:20;;;;;;;6.25;2.72;;;9.10;61.10;;;;;;5007967;28;20056;-74
2023/01/21 01:29:47;;;;;;;8.02;3.28;;;9.10;61.00;;;;;;5025630;28;20048;-73
2023/01/21 01:32:13;;;;;;;7.03;3.35;;;9.10;60.90;;;;;;5039956;28;20029;-73
2023/01/21 01:34:39;;;;;;;5.75;2.92;;;9.10;60.90;;;;;;5039797;28;20483;-74
2023/01/21 01:37:04;;;;;;;5.35;2.97;;;9.00;60.80;;;;;;5040530;28;20041;-73
2023/01/21 01:39:30;;;;;;;7.03;3.10;;;9.10;60.90;;;;;;5024280;28;20033;-73
2023/01/21 01:41:57;;;;;;;8.52;3.85;;;9.10;60.90;;;;;;5040317;28;20033;-74
2023/01/21 01:44:54;;;;;;;7.75;3.05;;;9.00;60.70;;;;;;5040253;28;20029;-73
2023/01/21 01:47:26;;;;;;;7.32;2.97;;;9.00;60.70;;;;;;5045961;28;20408;-72
2023/01/21 01:49:52;;;;;;;9.52;3.33;;;9.00;60.60;;;;;;5040656;28;20047;-72
2023/01/21 01:52:20;;;;;;;4.95;3.00;;;9.00;60.60;;;;;;5039960;28;20061;-73
2023/01/21 01:54:51;;;;;;;7.65;3.22;;;9.00;60.70;;;;;;5026146;28;20175;-73
2023/01/21 01:57:20;;;;;;;5.55;3.13;;;9.00;60.50;;;;;;5023281;28;20036;-73
2023/01/21 01:59:48;;;;;;;6.10;3.13;;;9.00;60.50;;;;;;5040366;28;20112;-73
2023/01/21 02:02:17;;;;;;;5.70;2.70;;;9.00;60.60;;;;;;5041142;28;20048;-73
2023/01/21 02:05:04;;;;;;;5.25;2.85;;;9.00;60.60;;;;;;5039219;28;20040;-72
2023/01/21 02:07:38;;;;;;;11.35;3.22;;;9.00;60.50;;;;;;5040718;28;20028;-73
2023/01/21 02:10:07;;;;;;;7.45;3.63;;;9.00;60.40;;;;;;5040591;28;20040;-72
2023/01/21 02:12:35;;;;;;;7.93;3.20;;;9.00;60.10;;;;;;5028386;28;20482;-72
2023/01/21 02:15:03;;;;;;;6.88;3.22;;;9.00;60.20;;;;;;5039788;28;20784;-73
2023/01/21 02:17:41;;;;;;;6.15;3.00;;;9.00;60.10;;;;;;5040350;28;20060;-73
2023/01/21 02:20:49;;;;;;;5.78;2.75;;;9.00;60.00;;;;;;5022200;28;20026;-73
2023/01/21 02:23:24;;;;;;;10.23;3.55;;;9.00;60.00;;;;;;5024984;28;20029;-72
2023/01/21 02:26:01;;;;;;;8.32;2.85;;;8.90;59.70;;;;;;5038476;28;20029;-73
2023/01/21 02:28:42;;;;;;;6.30;3.15;;;8.90;59.70;;;;;;5038698;28;20040;-72
2023/01/21 02:31:20;;;;;;;5.25;2.97;;;8.90;59.80;;;;;;5039835;28;20061;-73
2023/01/21 02:34:20;;;;;;;9.25;3.80;;;8.90;59.80;;;;;;5038840;28;20077;-72
2023/01/21 02:36:45;;;;;;;5.30;2.65;;;8.90;60.00;;;;;;5039337;28;20103;-72
2023/01/21 02:39:35;;;;;;;6.07;2.78;;;8.90;60.00;;;;;;5039714;28;20040;-72
2023/01/21 02:42:04;;;;;;;7.10;2.78;;;8.90;59.90;;;;;;5038928;28;20033;-72
2023/01/21 02:44:38;;;;;;;5.47;2.85;;;8.90;60.00;;;;;;5038765;28;20625;-72
2023/01/21 02:47:27;;;;;;;10.25;2.95;;;8.90;59.80;;;;;;5025055;28;20614;-72
2023/01/21 02:50:11;;;;;;;9.55;3.42;;;8.90;59.80;;;;;;5039080;28;20041;-72
2023/01/21 02:52:37;;;;;;;7.63;3.13;;;8.90;59.70;;;;;;5038388;28;20036;-72
2023/01/21 02:55:03;;;;;;;7.30;2.85;;;8.90;59.70;;;;;;5023656;28;20033;-72
2023/01/21 02:57:41;;;;;;;5.85;3.28;;;8.90;59.70;;;;;;5038639;28;20037;-73
2023/01/21 03:00:32;;;;;;;6.85;2.85;;;8.80;59.60;;;;;;5038567;28;20040;-72
2023/01/21 03:03:13;;;;;;;8.38;3.65;;;8.80;59.40;;;;;;4982521;28;20037;-72
2023/01/21 03:05:47;;;;;;;8.50;3.30;;;8.90;59.50;;;;;;4981692;28;20035;-72
2023/01/21 03:08:50;;;;;;;6.10;2.78;;;8.80;59.40;;;;;;4984382;28;20151;-72
2023/01/21 03:11:19;;;;;;;7.45;2.90;;;8.80;59.30;;;;;;4974934;28;20042;-72
2023/01/21 03:16:57;;;;;;;5.57;2.72;;;8.80;59.40;;;;;;4926271;29;20051;-72
2023/01/21 03:19:52;;;;;;;5.88;2.88;;;8.80;59.20;;;;;;4926411;29;20040;-72
2023/01/21 03:22:24;;;;;;;6.68;2.83;;;8.80;59.20;;;;;;4906106;29;20478;-72
2023/01/21 03:24:52;;;;;;;6.85;2.85;;;8.80;59.10;;;;;;4926326;29;20081;-72
2023/01/21 03:27:22;;;;;;;9.93;2.67;;;8.80;59.10;;;;;;4926567;29;20434;-72
2023/01/21 03:29:54;;;;;;;8.63;2.60;;;8.80;59.20;;;;;;4926352;29;20079;-72
2023/01/21 03:32:22;;;;;;;8.32;2.95;;;8.80;59.10;;;;;;4910616;29;20039;-73
2023/01/21 03:34:51;;;;;;;6.32;2.45;;;8.80;59.00;;;;;;4925722;29;20039;-73
2023/01/21 03:37:27;;;;;;;6.97;2.70;;;8.80;59.00;;;;;;4926683;29;20040;-72
2023/01/21 03:39:58;;;;;;;6.63;2.75;;;8.80;58.90;;;;;;4942793;28;20078;-72
2023/01/21 03:42:25;;;;;;;6.25;2.60;;;8.80;59.00;;;;;;4948710;28;20647;-73
2023/01/21 03:44:51;;;;;;;7.03;2.63;;;8.80;58.90;;;;;;4965025;28;20037;-73
2023/01/21 03:47:24;;;;;;;6.43;2.60;;;8.80;58.80;;;;;;4959948;28;20083;-72
2023/01/21 03:50:02;;;;;;;7.80;2.50;;;8.80;58.80;;;;;;4964185;28;20114;-72
2023/01/21 03:52:28;;;;;;;5.22;2.90;;;8.80;58.60;;;;;;4962825;28;20117;-72
2023/01/21 03:54:55;;;;;;;6.30;2.80;;;8.70;58.70;;;;;;4997356;28;20056;-72
2023/01/21 03:57:21;;;;;;;6.13;2.38;;;8.70;59.40;;;;;;4999158;28;21085;-72
2023/01/21 03:59:47;;;;;;;5.63;2.45;;;8.70;58.70;;;;;;4997454;28;20063;-73
2023/01/21 04:02:18;;;;;;;7.93;2.75;;;8.70;58.70;;;;;;5003125;28;20089;-73
2023/01/21 04:04:45;;;;;;;5.25;2.47;;;8.70;58.50;;;;;;4998745;28;20061;-73
2023/01/21 04:07:13;;;;;;;8.10;2.90;;;8.70;58.40;;;;;;4999604;28;20084;-72
2023/01/21 04:09:39;;;;;;;5.50;2.30;;;8.70;58.40;;;;;;4998474;28;20046;-73
2023/01/21 04:12:05;;;;;;;4.82;2.55;;;8.70;58.50;;;;;;5005280;28;20050;-73
2023/01/21 04:14:31;;;;;;;4.22;2.53;;;8.70;58.40;;;;;;5015718;28;20042;-73
2023/01/21 04:16:57;;;;;;;6.68;2.70;;;8.60;58.90;;;;;;4998573;28;20049;-73
2023/01/21 04:19:23;;;;;;;9.43;3.45;;;8.60;58.10;;;;;;4998503;28;20030;-73
2023/01/21 04:21:49;;;;;;;6.20;3.13;;;8.70;58.20;;;;;;5001562;28;20029;-72
2023/01/21 04:24:15;;;;;;;6.40;2.90;;;8.70;58.00;;;;;;4998334;28;20096;-72
2023/01/21 04:26:41;;;;;;;7.18;3.42;;;8.60;58.60;;;;;;5009565;28;20102;-73
2023/01/21 04:29:07;;;;;;;7.70;3.22;;;8.60;57.90;;;;;;5022581;28;20120;-73
2023/01/21 04:31:33;;;;;;;8.40;3.17;;;8.60;58.10;;;;;;5019180;28;20139;-72
2023/01/21 04:33:59;;;;;;;6.88;3.08;;;8.60;58.00;;;;;;5022812;28;20124;-72
2023/01/21 04:36:25;;;;;;;5.82;2.92;;;8.60;58.20;;;;;;5021114;28;20036;-72
2023/01/21 04:38:50;;;;;;;7.00;2.70;;;8.60;58.10;;;;;;5037271;28;20045;-72
2023/01/21 04:41:16;;;;;;;7.10;2.58;;;8.60;58.00;;;;;;5035718;28;20550;-72
2023/01/21 04:43:42;;;;;;;7.00;2.58;;;8.60;57.90;;;;;;5037541;28;20036;-72
2023/01/21 04:46:08;;;;;;;4.80;2.67;;;8.60;57.80;;;;;;5036796;28;20112;-72
2023/01/21 04:48:34;;;;;;;5.65;2.50;;;8.60;57.80;;;;;;5036363;28;20033;-72
2023/01/21 04:51:00;;;;;;;3.75;2.10;;;8.60;57.80;;;;;;5037172;28;20534;-72
2023/01/21 04:53:26;;;;;;;4.90;2.35;;;8.50;57.80;;;;;;5037364;28;20388;-72
2023/01/21 04:55:52;;;;;;;5.65;2.30;;;8.60;57.80;;;;;;5037809;28;20041;-72
2023/01/21 04:58:20;;;;;;;6.95;2.40;;;8.50;57.50;;;;;;5037635;28;20459;-72
2023/01/21 05:00:46;;;;;;;5.88;1.90;;;8.50;57.60;;;;;;5011091;28;20037;-72
2023/01/21 05:03:12;;;;;;;7.68;2.67;;;8.50;57.30;;;;;;5037542;28;20041;-72
2023/01/21 05:05:37;;;;;;;5.65;1.92;;;8.50;57.50;;;;;;5026080;28;20086;-72
2023/01/21 05:08:03;;;;;;;5.38;1.92;;;8.50;57.30;;;;;;5037426;28;20033;-72
2023/01/21 05:10:29;;;;;;;5.43;1.80;;;8.50;57.30;;;;;;5018969;28;20067;-72
2023/01/21 05:12:55;;;;;;;6.70;2.30;;;8.50;57.30;;;;;;5019312;28;20068;-72
2023/01/21 05:15:21;;;;;;;4.45;1.98;;;8.50;57.40;;;;;;5018983;28;20474;-72
2023/01/21 05:17:47;;;;;;;5.75;2.17;;;8.50;57.50;;;;;;5036734;28;20152;-72
2023/01/21 05:20:13;;;;;;;9.20;2.08;;;8.40;57.50;;;;;;5035979;28;20040;-73
2023/01/21 05:22:39;;;;;;;4.85;2.22;;;8.40;57.40;;;;;;5037579;28;20098;-72
2023/01/21 05:25:06;;;;;;;5.47;2.03;;;8.40;57.30;;;;;;5037855;28;20025;-73
2023/01/21 05:27:32;;;;;;;7.47;2.08;;;8.40;57.20;;;;;;5036788;28;20081;-72
2023/01/21 05:29:58;;;;;;;4.32;2.20;;;8.40;57.30;;;;;;5037021;28;20064;-72
2023/01/21 05:32:24;;;;;;;6.65;2.30;;;8.40;57.20;;;;;;5037222;28;20057;-72
2023/01/21 05:34:49;;;;;;;6.93;2.42;;;8.40;57.30;;;;;;5037442;28;20465;-72
2023/01/21 05:37:15;;;;;;;4.68;2.22;;;8.30;57.20;;;;;;5036548;28;20514;-72
2023/01/21 05:39:42;;;;;;;5.75;2.05;;;8.40;57.20;;;;;;5035843;28;20037;-72
2023/01/21 05:42:08;;;;;;;7.68;2.13;;;8.40;57.10;;;;;;5023335;28;20025;-73
2023/01/21 05:44:34;;;;;;;4.78;2.00;;;8.40;57.00;;;;;;5037754;28;20033;-73
2023/01/21 05:47:00;;;;;;;6.47;2.42;;;8.30;57.10;;;;;;5036860;28;21052;-72
2023/01/21 05:49:25;;;;;;;5.63;1.90;;;8.30;57.00;;;;;;5009925;28;20422;-72
2023/01/21 05:51:51;;;;;;;5.45;2.00;;;8.30;57.10;;;;;;5038147;28;20095;-72
2023/01/21 05:54:17;;;;;;;3.28;2.15;;;8.30;57.10;;;;;;5037301;28;20036;-72
2023/01/21 05:56:43;;;;;;;3.78;2.13;;;8.30;57.10;;;;;;5035741;28;20044;-73
2023/01/21 05:59:09;;;;;;;4.18;2.28;;;8.30;56.90;;;;;;5034375;28;20141;-73
2023/01/21 06:01:35;;;;;;;5.00;2.25;;;8.30;56.90;;;;;;5040789;28;20068;-73
2023/01/21 06:04:01;;;;;;;4.38;1.80;;;8.30;56.80;;;;;;5042433;28;20511;-72
2023/01/21 06:06:27;;;;;;;3.67;2.08;;;8.30;56.70;;;;;;5027773;28;20036;-73
2023/01/21 06:08:53;;;;;;;5.30;2.05;;;8.30;56.80;;;;;;5042857;28;20102;-73
2023/01/21 06:11:19;;;;;;;6.18;1.98;;;8.20;56.90;;;;;;5039958;28;20674;-72
2023/01/21 06:13:45;;;;;;;3.03;1.90;;;8.20;56.90;;;;;;5037705;28;20060;-72
2023/01/21 06:16:11;;;;;;;3.42;2.13;;;8.30;56.90;;;;;;5039760;28;20040;-73
2023/01/21 06:18:37;;;;;;;6.50;2.05;;;8.20;56.90;;;;;;5022014;28;20069;-73
2023/01/21 06:21:03;;;;;;;3.00;1.85;;;8.30;56.80;;;;;;5036963;28;20596;-73
2023/01/21 06:23:29;;;;;;;4.13;2.08;;;8.20;56.90;;;;;;5038849;28;20052;-73
2023/01/21 06:25:59;;;;;;;4.43;2.20;;;8.30;57.10;;;;;;5039408;28;20487;-72
2023/01/21 06:28:25;;;;;;;5.40;2.10;;;8.20;57.10;;;;;;5037759;28;20526;-75
2023/01/21 06:30:51;;;;;;;6.95;2.35;;;8.30;57.30;;;;;;5039058;28;20141;-77
2023/01/21 06:33:17;;;;;;;4.25;1.90;;;8.30;57.10;;;;;;5019192;28;20151;-74
2023/01/21 06:35:43;;;;;;;5.38;2.05;;;8.20;57.00;;;;;;5026290;28;20064;-72
2023/01/21 06:38:09;;;;;;;4.10;1.90;;;8.30;56.90;;;;;;5027510;28;20045;-73
2023/01/21 06:40:35;;;;;;;5.15;2.22;;;8.30;57.20;;;;;;5037753;28;20037;-74
2023/01/21 06:43:01;;;;;;;5.78;2.10;;;8.30;57.20;;;;;;5026315;28;20052;-73
2023/01/21 06:45:27;;;;;;;4.20;2.35;;;8.30;56.90;;;;;;5032925;28;20033;-73
2023/01/21 06:47:53;;;;;;;5.22;2.42;;;8.30;57.10;;;;;;5023065;28;20120;-73
2023/01/21 06:50:19;;;;;;;7.00;2.63;;;8.30;56.90;;;;;;5025288;28;20182;-74
2023/01/21 06:52:46;;;;;;;5.63;2.17;;;8.30;57.00;;;;;;5039533;28;20041;-74
2023/01/21 06:55:13;;;;;;;5.55;2.05;;;8.30;56.70;;;;;;5023074;28;20500;-74
2023/01/21 06:57:39;;;;;;;5.50;2.22;;;8.30;56.80;;;;;;5037690;28;20465;-73
2023/01/21 07:00:07;;;;;;;6.45;2.00;;;8.30;56.60;;;;;;5039080;28;20045;-74
2023/01/21 07:02:33;;;;;;;7.00;2.15;;;8.30;56.50;;;;;;5037972;28;20128;-73
2023/01/21 07:04:59;;;;;;;2.85;1.98;;;8.30;56.70;;;;;;5038912;28;20037;-74
2023/01/21 07:07:26;;;;;;;4.25;1.95;;;8.30;56.40;;;;;;5038339;28;20033;-73
2023/01/21 07:09:52;;;;;;;5.68;2.33;;;8.30;56.50;;;;;;5038832;28;20462;-73
2023/01/21 07:12:18;;;;;;;5.53;2.00;;;8.30;56.50;;;;;;5038327;28;20051;-73
2023/01/21 07:14:44;;;;;;;3.40;2.22;;;8.30;56.60;;;;;;5040851;28;20049;-73
2023/01/21 07:17:10;;;;;;;4.60;1.92;;;8.30;56.50;;;;;;5040152;28;20127;-72
2023/01/21 07:19:36;;;;;;;3.78;1.83;;;8.30;56.50;;;;;;5039273;28;20033;-75
2023/01/21 07:22:02;;;;;;;4.13;2.00;;;8.30;56.30;;;;;;5011075;28;20590;-73
2023/01/21 07:24:28;;;;;;;3.72;1.95;;;8.30;56.40;;;;;;5051386;28;20045;-75
2023/01/21 07:26:55;;;;;;;3.30;2.13;;;8.30;56.50;;;;;;5047740;28;20440;-75
2023/01/21 07:29:23;;;;;;;6.03;2.20;;;8.30;56.50;;;;;;5020575;28;20030;-73
2023/01/21 07:31:49;;;;;;;5.70;2.35;;;8.40;56.50;;;;;;5017975;28;20091;-75
2023/01/21 07:34:15;;;;;;;3.95;2.17;;;8.40;56.60;;;;;;5037527;28;20045;-77
2023/01/21 07:36:41;;;;;;;4.93;2.25;;;8.30;56.60;;;;;;5015484;28;20034;-77
2023/01/21 07:39:07;;;;;;;4.35;2.38;;;8.30;56.80;;;;;;5017436;28;20503;-74
2023/01/21 07:41:33;;;;;;;3.95;2.50;;;8.40;57.00;;;;;;5014792;28;20136;-77
2023/01/21 07:43:59;;;;;;;3.85;2.47;;;8.40;57.20;;;;;;5043867;28;20037;-77
2023/01/21 07:46:25;;;;;;;4.80;2.28;;;8.40;57.30;;;;;;5038176;28;20112;-73
2023/01/21 07:48:52;;;;;;;7.05;2.40;;;8.40;57.30;;;;;;5035403;28;20480;-75
2023/01/21 07:51:18;;;;;;;4.32;2.40;;;8.40;57.20;;;;;;5038072;28;20037;-74
2023/01/21 07:53:45;;;;;;;3.50;2.10;;;8.40;56.90;;;;;;5039890;28;20037;-74
2023/01/21 07:56:10;;;;;;;4.32;2.00;;;8.50;57.00;;;;;;5038702;28;20384;-74
2023/01/21 07:58:37;;;;;;;4.93;2.25;;;8.40;56.90;;;;;;5009955;28;20037;-74
2023/01/21 08:01:07;;;;;;;3.72;2.53;;;8.40;57.10;;;;;;5027942;28;20832;-74
2023/01/21 08:03:34;;;;;;;4.45;2.30;;;8.50;57.10;;;;;;5026825;28;20511;-76
2023/01/21 08:06:00;;;;;;;5.25;2.25;;;8.50;57.10;;;;;;5037691;28;20067;-78
2023/01/21 08:08:29;;;;;;;3.65;2.30;;;8.50;56.90;;;;;;5003655;28;21075;-74
2023/01/21 08:10:55;;;;;;;4.63;2.10;;;8.50;56.90;;;;;;4981553;28;20045;-73
2023/01/21 08:13:30;;;;;;;3.83;2.10;;;8.50;56.90;;;;;;5000035;28;20095;-75
2023/01/21 08:16:01;;;;;;;5.57;2.03;;;8.50;57.10;;;;;;5020612;28;20091;-76
2023/01/21 08:18:27;;;;;;;4.53;2.30;;;8.50;57.10;;;;;;5020511;28;20041;-74
2023/01/21 08:20:57;;;;;;;7.00;3.15;;;8.50;57.10;;;;;;4989019;28;20393;-75
2023/01/21 08:23:25;;;;;;;3.65;2.28;;;8.50;57.00;;;;;;5007534;28;20136;-74
2023/01/21 08:25:51;;;;;;;3.20;2.30;;;8.50;57.00;;;;;;5023178;28;20546;-76
2023/01/21 08:28:25;;;;;;;4.10;2.13;;;8.60;56.90;;;;;;5004009;28;20405;-75
2023/01/21 08:31:01;;;;;;;2.92;2.40;;;8.60;56.80;;;;;;5017315;28;20072;-76
2023/01/21 08:33:30;;;;;;;3.67;2.10;;;8.60;56.90;;;;;;4991539;28;20052;-76
2023/01/21 08:36:01;;;;;;;6.65;2.58;;;8.60;56.80;;;;;;5012918;28;20041;-75
2023/01/21 08:38:27;;;;;;;3.85;2.17;;;8.60;57.00;;;;;;4987851;28;20080;-74
2023/01/21 08:41:02;;;;;;;4.47;2.40;;;8.60;57.00;;;;;;5003158;28;20175;-75
2023/01/21 08:43:28;;;;;;;5.40;2.40;;;8.60;57.00;;;;;;4988375;28;20041;-74
2023/01/21 08:45:56;;;;;;;4.85;2.65;;;8.60;56.90;;;;;;5001278;28;20052;-75
2023/01/21 08:48:22;;;;;;;6.68;2.60;;;8.70;56.80;;;;;;5003874;28;20038;-76
2023/01/21 08:50:53;;;;;;;4.97;2.60;;;8.60;56.80;;;;;;5004100;28;20067;-76
2023/01/21 08:53:21;;;;;;;3.35;2.05;;;8.70;56.80;;;;;;5020173;28;20041;-75
2023/01/21 08:55:48;;;;;;;4.72;2.22;;;8.70;56.70;;;;;;5015460;28;20036;-74
2023/01/21 08:58:14;;;;;;;6.85;2.63;;;8.70;56.90;;;;;;5018941;28;20140;-76
2023/01/21 09:00:47;;;;;;;7.40;2.33;;;8.70;56.90;;;;;;5017003;28;20048;-75
2023/01/21 09:03:18;;;;;;;3.45;2.30;;;8.70;57.10;;;;;;5003728;28;20034;-76
2023/01/21 09:05:45;;;;;;;5.63;2.10;;;8.70;56.80;;;;;;5003449;28;20037;-74
2023/01/21 09:08:13;;;;;;;4.50;2.08;;;8.70;56.70;;;;;;4987582;28;20049;-75
2023/01/21 09:13:23;;;;;;;3.88;2.17;;;8.70;56.80;;;;;;5020086;28;20039;-75
2023/01/21 09:15:49;;;;;;;4.00;2.05;;;8.70;57.00;;;;;;5016627;28;20037;-75
2023/01/21 09:18:15;;;;;;;2.92;1.95;;;8.70;57.00;;;;;;5016758;28;20038;-74
2023/01/21 09:20:41;;;;;;;5.95;2.20;;;8.80;56.90;;;;;;5017347;28;20029;-75
2023/01/21 09:23:24;;;;;;;4.43;2.40;;;8.80;57.00;;;;;;5014528;28;20040;-75
2023/01/21 09:25:54;;;;;;;3.78;2.10;;;8.80;57.00;;;;;;5016486;28;20033;-74
2023/01/21 09:28:22;;;;;;;4.90;2.28;;;8.80;56.80;;;;;;5034250;28;20065;-75
2023/01/21 09:30:48;;;;;;;5.22;2.20;;;8.80;57.30;;;;;;5020014;28;20029;-74
2023/01/21 09:33:14;;;;;;;6.13;2.72;;;8.80;56.70;;;;;;5035723;28;20100;-76
2023/01/21 09:35:41;;;;;;;4.15;2.15;;;8.80;56.60;;;;;;5036728;28;20466;-77
2023/01/21 09:38:07;;;;;;;3.22;2.03;;;8.80;56.60;;;;;;5038650;28;20080;-77
2023/01/21 09:40:34;;;;;;;3.17;1.98;;;8.80;56.50;;;;;;5039773;28;20037;-76
2023/01/21 09:43:10;;;;;;;6.22;2.33;;;8.80;56.30;;;;;;5028086;28;20056;-77
2023/01/21 09:45:36;;;;;;;6.50;2.80;;;8.80;56.30;;;;;;5038452;28;20048;-76
2023/01/21 09:48:05;;;;;;;3.17;2.00;;;8.80;56.40;;;;;;5027797;28;20037;-76
2023/01/21 09:50:37;;;;;;;5.03;1.88;;;8.80;56.50;;;;;;5038480;28;20583;-77
2023/01/21 09:53:25;;;;;;;3.38;2.60;;;8.80;56.60;;;;;;5040612;28;20071;-75
2023/01/21 09:55:52;;;;;;;6.43;2.40;;;8.80;56.60;;;;;;5041406;28;20036;-77
2023/01/21 09:58:38;;;;;;;4.30;2.50;;;8.80;56.60;;;;;;5039175;28;20060;-75
2023/01/21 10:01:13;;;;;;;5.55;2.42;;;8.80;56.70;;;;;;5043560;28;20147;-76
2023/01/21 10:03:58;;;;;;;4.72;2.10;;;8.80;56.60;;;;;;5036923;28;20180;-77
2023/01/21 10:06:37;;;;;;;2.87;2.03;;;8.80;56.80;;;;;;5027059;28;20038;-76
2023/01/21 10:09:30;;;;;;;2.88;2.05;;;8.80;56.70;;;;;;5019542;28;20041;-76
2023/01/21 10:12:25;;;;;;;4.82;2.28;;;8.80;56.80;;;;;;5035941;28;20037;-76
2023/01/21 10:14:51;;;;;;;2.80;2.10;;;8.80;56.90;;;;;;4969263;28;20125;-77
2023/01/21 10:17:50;;;;;;;4.35;2.25;;;8.80;56.70;;;;;;4983196;28;20049;-76
2023/01/21 10:20:34;;;;;;;3.35;2.10;;;8.80;56.90;;;;;;4983857;28;20042;-77
2023/01/21 10:23:24;;;;;;;4.35;2.40;;;8.80;56.80;;;;;;4986964;28;20093;-76
2023/01/21 10:25:50;;;;;;;6.00;2.35;;;8.80;56.60;;;;;;4966910;28;20504;-75
2023/01/21 10:28:27;;;;;;;3.03;2.45;;;8.80;56.50;;;;;;4984902;28;20539;-77
2023/01/21 10:30:57;;;;;;;3.58;2.22;;;8.80;56.50;;;;;;4984093;28;20488;-76
2023/01/21 10:33:26;;;;;;;3.55;2.08;;;8.80;56.60;;;;;;4967531;28;20621;-77
2023/01/21 10:36:07;;;;;;;7.93;2.58;;;8.80;56.80;;;;;;4985196;28;20073;-81
2023/01/21 10:38:50;;;;;;;3.55;2.08;;;8.80;56.80;;;;;;4983927;28;20140;-81
2023/01/21 10:41:35;;;;;;;5.63;2.13;;;8.80;56.80;;;;;;4985159;28;20030;-81
2023/01/21 10:44:12;;;;;;;4.72;2.03;;;8.80;56.90;;;;;;4977331;28;20042;-77
2023/01/21 10:46:40;;;;;;;3.72;2.08;;;8.80;56.70;;;;;;4982533;28;20034;-76
2023/01/21 10:49:46;;;;;;;5.72;1.95;;;8.80;56.70;;;;;;4983473;28;20541;-77
2023/01/21 10:52:24;;;;;;;4.75;2.10;;;8.80;56.90;;;;;;5010090;28;20041;-76
2023/01/21 10:54:56;;;;;;;4.38;2.03;;;8.80;56.90;;;;;;5021265;28;20037;-76
2023/01/21 10:57:42;;;;;;;4.53;2.65;;;8.80;57.00;;;;;;5037268;28;20044;-78
2023/01/21 11:00:31;;;;;;;4.50;2.25;;;8.80;57.10;;;;;;5037426;28;20029;-78
2023/01/21 11:03:02;;;;;;;2.90;2.10;;;8.80;57.20;;;;;;5038573;28;20443;-77
2023/01/21 11:05:31;;;;;;;3.95;2.28;;;8.90;57.50;;;;;;5041972;28;20183;-77
2023/01/21 11:07:57;;;;;;;7.13;2.00;;;8.90;57.50;;;;;;5025769;28;20045;-75
2023/01/21 11:10:25;;;;;;;5.82;2.28;;;8.90;57.70;;;;;;5034740;28;20045;-76
2023/01/21 11:12:54;;;;;;;3.88;2.25;;;8.80;57.60;;;;;;5037914;28;20013;-76
2023/01/21 11:15:20;;;;;;;4.28;2.45;;;8.90;57.60;;;;;;5021354;28;20030;-76
2023/01/21 11:17:58;;;;;;;4.43;2.38;;;8.90;57.70;;;;;;5035894;28;20041;-76
2023/01/21 11:20:32;;;;;;;3.88;2.20;;;8.90;57.60;;;;;;5036002;28;20045;-75
2023/01/21 11:22:58;;;;;;;3.40;2.15;;;8.90;57.70;;;;;;5040800;28;20145;-76
2023/01/21 11:25:40;;;;;;;4.40;2.22;;;8.90;57.90;;;;;;5008604;28;20087;-77
2023/01/21 11:28:25;;;;;;;5.53;2.53;;;8.90;58.00;;;;;;5021301;28;20084;-75
2023/01/21 11:31:06;;;;;;;6.88;2.35;;;8.90;58.20;;;;;;5036485;28;20051;-77
2023/01/21 11:33:32;;;;;;;5.28;2.70;;;8.90;58.20;;;;;;5038281;28;20048;-78
2023/01/21 11:36:12;;;;;;;3.50;2.25;;;8.90;58.20;;;;;;5006482;28;20029;-79
2023/01/21 11:38:38;;;;;;;7.25;2.72;;;8.90;58.20;;;;;;5035897;28;20107;-81
2023/01/21 11:41:06;;;;;;;4.10;2.28;;;8.90;58.20;;;;;;5020825;28;20090;-82
2023/01/21 11:43:55;;;;;;;4.90;2.45;;;8.90;58.30;;;;;;5023647;28;20539;-80
2023/01/21 11:46:31;;;;;;;6.35;2.65;;;8.90;58.30;;;;;;5019830;28;20041;-78
2023/01/21 11:49:06;;;;;;;4.65;2.45;;;8.90;58.20;;;;;;5040771;28;20105;-78
2023/01/21 11:51:34;;;;;;;3.13;2.22;;;8.90;58.10;;;;;;5036022;28;20044;-75
2023/01/21 11:54:21;;;;;;;3.92;1.90;;;8.90;58.20;;;;;;5035060;28;20084;-76
2023/01/21 11:56:52;;;;;;;6.57;3.28;;;8.90;58.10;;;;;;5036174;28;20033;-77
2023/01/21 11:59:24;;;;;;;5.68;2.63;;;8.90;58.20;;;;;;5034707;28;20037;-77
2023/01/21 12:01:58;;;;;;;3.88;2.20;;;8.90;58.40;;;;;;5036653;28;20033;-78
2023/01/21 12:04:25;;;;;;;11.60;2.40;;;8.90;58.50;;;;;;5008832;28;20564;-79
2023/01/21 12:06:56;;;;;;;3.45;2.10;;;8.90;58.30;;;;;;5020557;28;20129;-80
2023/01/21 12:09:23;;;;;;;4.40;2.17;;;8.90;58.20;;;;;;5022427;28;20045;-80
2023/01/21 12:12:24;;;;;;;3.80;2.03;;;8.80;57.90;;;;;;5016949;28;20033;-79
2023/01/21 12:14:54;;;;;;;7.28;2.58;;;8.90;57.80;;;;;;5036161;28;20057;-74
2023/01/21 12:17:28;;;;;;;6.93;2.50;;;8.80;60.00;;;;;;5034764;28;20068;-74
2023/01/21 12:20:18;;;;;;;5.63;3.10;;;8.70;55.60;;;;;;5035892;28;20407;-74
2023/01/21 12:22:57;;;;;;;6.13;3.17;;;8.50;52.80;;;;;;5034899;28;20582;-72
2023/01/21 12:25:44;;;;;;;4.93;3.55;;;8.30;51.70;;;;;;5035654;28;20127;-78
2023/01/21 12:28:23;;;;;;;5.57;3.40;;;8.10;51.00;;;;;;5041142;28;20428;-74
2023/01/21 12:31:08;;;;;;;7.40;3.65;;;7.90;51.10;;;;;;5036195;28;20055;-75
2023/01/21 12:34:13;;;;;;;5.03;3.10;;;7.80;50.70;;;;;;5035231;28;20037;-72
2023/01/21 12:36:45;;;;;;;6.57;3.05;;;7.60;50.40;;;;;;5007925;28;20415;-73
2023/01/21 12:39:23;;;;;;;6.38;2.72;;;7.50;50.70;;;;;;5024466;28;20036;-72
2023/01/21 12:42:21;;;;;;;5.53;2.83;;;7.30;50.80;;;;;;5023314;28;20037;-72
2023/01/21 12:44:59;;;;;;;4.30;2.97;;;7.20;50.50;;;;;;5034428;28;20148;-72
2023/01/21 12:47:41;;;;;;;6.88;3.05;;;7.10;50.60;;;;;;5031675;28;20040;-72
2023/01/21 12:50:25;;;;;;;5.28;3.03;;;7.00;50.60;;;;;;5032536;28;20040;-72
2023/01/21 12:53:05;;;;;;;6.38;3.40;;;6.80;50.80;;;;;;5019814;28;20041;-74
2023/01/21 12:56:06;;;;;;;5.65;2.88;;;6.80;51.00;;;;;;5029412;28;20420;-74
2023/01/21 12:58:55;;;;;;;4.22;2.38;;;6.70;51.20;;;;;;5041397;28;20035;-74
2023/01/21 13:01:30;;;;;;;3.47;2.50;;;6.60;51.30;;;;;;5033391;28;20022;-74
2023/01/21 13:04:11;;;;;;;6.25;3.05;;;6.50;50.70;;;;;;5025338;28;20075;-78
2023/01/21 13:06:43;;;;;;;4.60;2.25;;;6.50;57.00;;;;;;5016102;28;20030;-76
2023/01/21 13:09:23;;;;;;;5.15;2.10;;;6.70;58.40;;;;;;5037176;28;20037;-76
2023/01/21 13:12:19;;;;;;;5.05;2.50;;;6.80;61.30;;;;;;5043183;28;20491;-77
2023/01/21 13:15:12;;;;;;;4.90;2.27;;;7.00;62.70;;;;;;5031141;28;20032;-79
2023/01/21 13:17:42;;;;;;;4.38;2.17;;;7.20;63.40;;;;;;5037384;28;20283;-76
2023/01/21 13:20:16;;;;;;;5.50;2.00;;;7.30;63.60;;;;;;5022281;28;20419;-77
2023/01/21 13:23:06;;;;;;;6.07;2.70;;;7.40;63.70;;;;;;5016391;28;20033;-76
2023/01/21 13:25:49;;;;;;;2.90;1.80;;;7.50;64.00;;;;;;5032181;28;20037;-78